sensor_id;sensor_type;location;lat;lon;timestamp;temperature;humidity
6377;DHT22;3221;48.858;10.128;2022-12-18T00:03:45;-6.80;99.90
6377;DHT22;3221;48.858;10.128;2022-12-18T00:06:13;-6.80;99.90
6377;DHT22;3221;48.858;10.128;2022-12-18T00:08:41;-6.90;99.90
6377;DHT22;3221;48.858;10.128;2022-12-18T00:11:11;-6.90;99.90
6377;DHT22;3221;48.858;10.128;2022-12-18T00:13:38;-7.00;99.90
6377;DHT22;3221;48.858;10.128;2022-12-18T00:16:08;-6.90;99.90
6377;DHT22;3221;48.858;10.128;2022-12-18T00:18:36;-6.90;99.90
6377;DHT22;3221;48.858;10.128;2022-12-18T00:21:06;-6.90;99.90
6377;DHT22;3221;48.858;10.128;2022-12-18T00:23:34;-7.00;99.90
6377;DHT22;3221;48.858;10.128;2022-12-18T00:26:06;-6.90;99.90
6377;DHT22;3221;48.858;10.128;2022-12-18T00:28:33;-7.00;99.90
6377;DHT22;3221;48.858;10.128;2022-12-18T00:31:05;-7.00;99.90
6377;DHT22;3221;48.858;10.128;2022-12-18T00:33:33;-7.00;99.90
6377;DHT22;3221;48.858;10.128;2022-12-18T00:36:21;-7.00;99.90
6377;DHT22;3221;48.858;10.128;2022-12-18T00:38:51;-7.00;99.90
6377;DHT22;3221;48.858;10.128;2022-12-18T00:41:18;-7.00;99.90
6377;DHT22;3221;48.858;10.128;2022-12-18T00:44:07;-7.10;99.90
6377;DHT22;3221;48.858;10.128;2022-12-18T00:46:34;-7.10;99.90
6377;DHT22;3221;48.858;10.128;2022-12-18T00:49:01;-7.10;99.90
6377;DHT22;3221;48.858;10.128;2022-12-18T00:51:28;-7.10;99.90
6377;DHT22;3221;48.858;10.128;2022-12-18T00:53:55;-7.00;99.90
6377;DHT22;3221;48.858;10.128;2022-12-18T00:56:22;-7.10;99.90
6377;DHT22;3221;48.858;10.128;2022-12-18T00:58:49;-7.10;99.90
6377;DHT22;3221;48.858;10.128;2022-12-18T01:01:17;-7.00;99.90
6377;DHT22;3221;48.858;10.128;2022-12-18T01:03:44;-7.00;99.90
6377;DHT22;3221;48.858;10.128;2022-12-18T01:06:15;-7.10;99.90
6377;DHT22;3221;48.858;10.128;2022-12-18T01:08:42;-7.20;99.90
6377;DHT22;3221;48.858;10.128;2022-12-18T01:11:14;-7.10;99.90
6377;DHT22;3221;48.858;10.128;2022-12-18T01:13:42;-7.20;99.90
6377;DHT22;3221;48.858;10.128;2022-12-18T01:16:14;-7.30;99.90
6377;DHT22;3221;48.858;10.128;2022-12-18T01:18:41;-7.30;99.90
6377;DHT22;3221;48.858;10.128;2022-12-18T01:21:10;-7.30;99.90
6377;DHT22;3221;48.858;10.128;2022-12-18T01:23:38;-7.30;99.90
6377;DHT22;3221;48.858;10.128;2022-12-18T01:26:11;-7.30;99.90
6377;DHT22;3221;48.858;10.128;2022-12-18T01:28:38;-7.30;99.90
6377;DHT22;3221;48.858;10.128;2022-12-18T01:31:27;-7.30;99.90
6377;DHT22;3221;48.858;10.128;2022-12-18T01:33:55;-7.30;99.90
6377;DHT22;3221;48.858;10.128;2022-12-18T01:36:30;-7.40;99.90
6377;DHT22;3221;48.858;10.128;2022-12-18T01:39:00;-7.30;99.90
6377;DHT22;3221;48.858;10.128;2022-12-18T01:41:28;-7.50;99.90
6377;DHT22;3221;48.858;10.128;2022-12-18T01:50:18;-7.50;99.90
6377;DHT22;3221;48.858;10.128;2022-12-18T01:52:53;-7.60;99.90
6377;DHT22;3221;48.858;10.128;2022-12-18T01:55:23;-7.60;99.90
6377;DHT22;3221;48.858;10.128;2022-12-18T01:57:53;-7.50;99.90
6377;DHT22;3221;48.858;10.128;2022-12-18T02:00:22;-7.50;99.90
6377;DHT22;3221;48.858;10.128;2022-12-18T02:02:50;-7.50;99.90
6377;DHT22;3221;48.858;10.128;2022-12-18T02:08:17;-7.50;99.90
6377;DHT22;3221;48.858;10.128;2022-12-18T02:11:07;-7.40;99.90
6377;DHT22;3221;48.858;10.128;2022-12-18T02:16:55;-7.50;99.90
6377;DHT22;3221;48.858;10.128;2022-12-18T02:19:47;-7.60;99.90
6377;DHT22;3221;48.858;10.128;2022-12-18T02:27:56;-7.80;99.90
6377;DHT22;3221;48.858;10.128;2022-12-18T02:30:27;-7.80;99.90
6377;DHT22;3221;48.858;10.128;2022-12-18T02:32:56;-7.80;99.90
6377;DHT22;3221;48.858;10.128;2022-12-18T02:35:26;-7.80;99.90
6377;DHT22;3221;48.858;10.128;2022-12-18T02:37:57;-7.90;99.90
6377;DHT22;3221;48.858;10.128;2022-12-18T02:40:28;-7.90;99.90
6377;DHT22;3221;48.858;10.128;2022-12-18T02:43:12;-7.90;99.90
6377;DHT22;3221;48.858;10.128;2022-12-18T02:45:57;-7.90;99.90
6377;DHT22;3221;48.858;10.128;2022-12-18T02:48:33;-7.90;99.90
6377;DHT22;3221;48.858;10.128;2022-12-18T02:51:11;-7.80;99.90
6377;DHT22;3221;48.858;10.128;2022-12-18T02:53:47;-7.80;99.90
6377;DHT22;3221;48.858;10.128;2022-12-18T02:56:21;-7.80;99.90
6377;DHT22;3221;48.858;10.128;2022-12-18T03:01:58;-7.70;99.90
6377;DHT22;3221;48.858;10.128;2022-12-18T03:04:39;-7.80;99.90
6377;DHT22;3221;48.858;10.128;2022-12-18T03:07:11;-7.80;99.90
6377;DHT22;3221;48.858;10.128;2022-12-18T03:09:45;-7.90;99.90
6377;DHT22;3221;48.858;10.128;2022-12-18T03:12:40;-7.90;99.90
6377;DHT22;3221;48.858;10.128;2022-12-18T03:15:23;-8.00;99.90
6377;DHT22;3221;48.858;10.128;2022-12-18T03:18:08;-8.00;99.90
6377;DHT22;3221;48.858;10.128;2022-12-18T03:20:37;-8.00;99.90
6377;DHT22;3221;48.858;10.128;2022-12-18T03:23:15;-8.10;99.90
6377;DHT22;3221;48.858;10.128;2022-12-18T03:25:47;-8.10;99.90
6377;DHT22;3221;48.858;10.128;2022-12-18T03:28:20;-8.10;99.90
6377;DHT22;3221;48.858;10.128;2022-12-18T03:30:56;-8.10;99.90
6377;DHT22;3221;48.858;10.128;2022-12-18T03:33:29;-8.00;99.90
6377;DHT22;3221;48.858;10.128;2022-12-18T03:35:58;-8.00;99.90
6377;DHT22;3221;48.858;10.128;2022-12-18T03:38:25;-8.00;99.90
6377;DHT22;3221;48.858;10.128;2022-12-18T03:46:28;-8.10;99.90
6377;DHT22;3221;48.858;10.128;2022-12-18T03:49:01;-8.20;99.90
6377;DHT22;3221;48.858;10.128;2022-12-18T03:51:40;-8.30;99.90
6377;DHT22;3221;48.858;10.128;2022-12-18T03:54:09;-8.30;99.90
6377;DHT22;3221;48.858;10.128;2022-12-18T03:56:46;-8.30;99.90
6377;DHT22;3221;48.858;10.128;2022-12-18T03:59:16;-8.20;99.90
6377;DHT22;3221;48.858;10.128;2022-12-18T04:01:47;-8.20;99.90
6377;DHT22;3221;48.858;10.128;2022-12-18T04:04:18;-8.20;99.90
6377;DHT22;3221;48.858;10.128;2022-12-18T04:06:46;-8.20;99.90
6377;DHT22;3221;48.858;10.128;2022-12-18T04:09:15;-8.10;99.90
6377;DHT22;3221;48.858;10.128;2022-12-18T04:11:46;-8.00;99.90
6377;DHT22;3221;48.858;10.128;2022-12-18T04:14:15;-8.00;99.90
6377;DHT22;3221;48.858;10.128;2022-12-18T04:16:46;-8.10;99.90
6377;DHT22;3221;48.858;10.128;2022-12-18T04:19:16;-8.10;99.90
6377;DHT22;3221;48.858;10.128;2022-12-18T04:21:46;-8.10;99.90
6377;DHT22;3221;48.858;10.128;2022-12-18T04:24:13;-8.20;99.90
6377;DHT22;3221;48.858;10.128;2022-12-18T04:26:48;-8.20;99.90
6377;DHT22;3221;48.858;10.128;2022-12-18T04:29:20;-8.20;99.90
6377;DHT22;3221;48.858;10.128;2022-12-18T04:31:47;-8.20;99.90
6377;DHT22;3221;48.858;10.128;2022-12-18T04:34:15;-8.20;99.90
6377;DHT22;3221;48.858;10.128;2022-12-18T04:36:48;-8.20;99.90
6377;DHT22;3221;48.858;10.128;2022-12-18T04:39:15;-8.30;99.90
6377;DHT22;3221;48.858;10.128;2022-12-18T04:41:42;-8.30;99.90
6377;DHT22;3221;48.858;10.128;2022-12-18T04:44:12;-8.30;99.90
6377;DHT22;3221;48.858;10.128;2022-12-18T04:46:39;-8.30;99.90
6377;DHT22;3221;48.858;10.128;2022-12-18T04:49:06;-8.30;99.90
6377;DHT22;3221;48.858;10.128;2022-12-18T04:51:32;-8.30;99.90
6377;DHT22;3221;48.858;10.128;2022-12-18T04:53:59;-8.30;99.90
6377;DHT22;3221;48.858;10.128;2022-12-18T04:56:26;-8.30;99.90
6377;DHT22;3221;48.858;10.128;2022-12-18T04:58:53;-8.40;99.90
6377;DHT22;3221;48.858;10.128;2022-12-18T05:01:19;-8.40;99.90
6377;DHT22;3221;48.858;10.128;2022-12-18T05:03:47;-8.30;99.90
6377;DHT22;3221;48.858;10.128;2022-12-18T05:06:14;-8.40;99.90
6377;DHT22;3221;48.858;10.128;2022-12-18T05:08:41;-8.40;99.90
6377;DHT22;3221;48.858;10.128;2022-12-18T05:11:11;-8.40;99.90
6377;DHT22;3221;48.858;10.128;2022-12-18T05:13:38;-8.40;99.90
6377;DHT22;3221;48.858;10.128;2022-12-18T05:16:06;-8.50;99.90
6377;DHT22;3221;48.858;10.128;2022-12-18T05:18:33;-8.40;99.90
6377;DHT22;3221;48.858;10.128;2022-12-18T05:21:01;-8.40;99.90
6377;DHT22;3221;48.858;10.128;2022-12-18T05:23:28;-8.40;99.90
6377;DHT22;3221;48.858;10.128;2022-12-18T05:26:00;-8.40;99.90
6377;DHT22;3221;48.858;10.128;2022-12-18T05:28:28;-8.40;99.90
6377;DHT22;3221;48.858;10.128;2022-12-18T05:30:58;-8.40;99.90
6377;DHT22;3221;48.858;10.128;2022-12-18T05:33:28;-8.40;99.90
6377;DHT22;3221;48.858;10.128;2022-12-18T05:36:04;-8.30;99.90
6377;DHT22;3221;48.858;10.128;2022-12-18T05:38:33;-8.30;99.90
6377;DHT22;3221;48.858;10.128;2022-12-18T05:41:01;-8.30;99.90
6377;DHT22;3221;48.858;10.128;2022-12-18T05:43:29;-8.20;99.90
6377;DHT22;3221;48.858;10.128;2022-12-18T05:45:56;-8.20;99.90
6377;DHT22;3221;48.858;10.128;2022-12-18T05:48:23;-8.20;99.90
6377;DHT22;3221;48.858;10.128;2022-12-18T05:50:50;-8.30;99.90
6377;DHT22;3221;48.858;10.128;2022-12-18T05:53:19;-8.30;99.90
6377;DHT22;3221;48.858;10.128;2022-12-18T05:55:47;-8.30;99.90
6377;DHT22;3221;48.858;10.128;2022-12-18T05:58:15;-8.50;99.90
6377;DHT22;3221;48.858;10.128;2022-12-18T06:00:45;-8.40;99.90
6377;DHT22;3221;48.858;10.128;2022-12-18T06:03:12;-8.60;99.90
6377;DHT22;3221;48.858;10.128;2022-12-18T06:05:42;-8.60;99.90
6377;DHT22;3221;48.858;10.128;2022-12-18T06:08:10;-8.60;99.90
6377;DHT22;3221;48.858;10.128;2022-12-18T06:10:37;-8.60;99.90
6377;DHT22;3221;48.858;10.128;2022-12-18T06:13:05;-8.60;99.90
6377;DHT22;3221;48.858;10.128;2022-12-18T06:15:33;-8.50;99.90
6377;DHT22;3221;48.858;10.128;2022-12-18T06:18:02;-8.50;99.90
6377;DHT22;3221;48.858;10.128;2022-12-18T06:20:30;-8.50;99.90
6377;DHT22;3221;48.858;10.128;2022-12-18T06:22:59;-8.40;99.90
6377;DHT22;3221;48.858;10.128;2022-12-18T06:25:26;-8.50;99.90
6377;DHT22;3221;48.858;10.128;2022-12-18T06:27:53;-8.50;99.90
6377;DHT22;3221;48.858;10.128;2022-12-18T06:30:20;-8.50;99.90
6377;DHT22;3221;48.858;10.128;2022-12-18T06:32:48;-8.40;99.90
6377;DHT22;3221;48.858;10.128;2022-12-18T06:35:21;-8.40;99.90
6377;DHT22;3221;48.858;10.128;2022-12-18T06:37:48;-8.50;99.90
6377;DHT22;3221;48.858;10.128;2022-12-18T06:40:16;-8.40;99.90
6377;DHT22;3221;48.858;10.128;2022-12-18T06:42:43;-8.40;99.90
6377;DHT22;3221;48.858;10.128;2022-12-18T06:45:10;-8.40;99.90
6377;DHT22;3221;48.858;10.128;2022-12-18T06:47:37;-8.40;99.90
6377;DHT22;3221;48.858;10.128;2022-12-18T06:50:05;-8.50;99.90
6377;DHT22;3221;48.858;10.128;2022-12-18T06:52:32;-8.40;99.90
6377;DHT22;3221;48.858;10.128;2022-12-18T06:55:00;-8.50;99.90
6377;DHT22;3221;48.858;10.128;2022-12-18T06:57:27;-8.50;99.90
6377;DHT22;3221;48.858;10.128;2022-12-18T06:59:54;-8.50;99.90
6377;DHT22;3221;48.858;10.128;2022-12-18T07:02:21;-8.50;99.90
6377;DHT22;3221;48.858;10.128;2022-12-18T07:04:51;-8.40;99.90
6377;DHT22;3221;48.858;10.128;2022-12-18T07:07:18;-8.40;99.90
6377;DHT22;3221;48.858;10.128;2022-12-18T07:09:44;-8.30;99.90
6377;DHT22;3221;48.858;10.128;2022-12-18T07:12:11;-8.30;99.90
6377;DHT22;3221;48.858;10.128;2022-12-18T07:14:38;-8.20;99.90
6377;DHT22;3221;48.858;10.128;2022-12-18T07:17:05;-8.10;99.90
6377;DHT22;3221;48.858;10.128;2022-12-18T07:19:32;-8.00;99.90
6377;DHT22;3221;48.858;10.128;2022-12-18T07:22:00;-8.10;99.90
6377;DHT22;3221;48.858;10.128;2022-12-18T07:24:27;-8.00;99.90
6377;DHT22;3221;48.858;10.128;2022-12-18T07:26:54;-8.00;99.90
6377;DHT22;3221;48.858;10.128;2022-12-18T07:29:21;-8.00;99.90
6377;DHT22;3221;48.858;10.128;2022-12-18T07:31:48;-7.90;99.90
6377;DHT22;3221;48.858;10.128;2022-12-18T07:34:15;-7.90;99.90
6377;DHT22;3221;48.858;10.128;2022-12-18T07:36:43;-7.90;99.90
6377;DHT22;3221;48.858;10.128;2022-12-18T07:39:11;-7.90;99.90
6377;DHT22;3221;48.858;10.128;2022-12-18T07:41:38;-7.90;99.90
6377;DHT22;3221;48.858;10.128;2022-12-18T07:44:15;-7.90;99.90
6377;DHT22;3221;48.858;10.128;2022-12-18T07:46:41;-7.90;99.90
6377;DHT22;3221;48.858;10.128;2022-12-18T07:49:08;-7.90;99.90
6377;DHT22;3221;48.858;10.128;2022-12-18T07:51:35;-7.90;99.90
6377;DHT22;3221;48.858;10.128;2022-12-18T07:54:02;-7.90;99.90
6377;DHT22;3221;48.858;10.128;2022-12-18T07:56:29;-7.90;99.90
6377;DHT22;3221;48.858;10.128;2022-12-18T07:58:58;-7.90;99.90
6377;DHT22;3221;48.858;10.128;2022-12-18T08:01:25;-7.80;99.90
6377;DHT22;3221;48.858;10.128;2022-12-18T08:03:52;-7.80;99.90
6377;DHT22;3221;48.858;10.128;2022-12-18T08:06:19;-7.80;99.90
6377;DHT22;3221;48.858;10.128;2022-12-18T08:08:54;-7.80;99.90
6377;DHT22;3221;48.858;10.128;2022-12-18T08:11:22;-7.80;99.90
6377;DHT22;3221;48.858;10.128;2022-12-18T08:13:50;-7.90;99.90
6377;DHT22;3221;48.858;10.128;2022-12-18T08:16:17;-7.80;99.90
6377;DHT22;3221;48.858;10.128;2022-12-18T08:18:45;-7.90;99.90
6377;DHT22;3221;48.858;10.128;2022-12-18T08:21:14;-7.80;99.90
6377;DHT22;3221;48.858;10.128;2022-12-18T08:23:42;-7.80;99.90
6377;DHT22;3221;48.858;10.128;2022-12-18T08:26:11;-7.90;99.90
6377;DHT22;3221;48.858;10.128;2022-12-18T08:28:38;-7.80;99.90
6377;DHT22;3221;48.858;10.128;2022-12-18T08:31:05;-7.90;99.90
6377;DHT22;3221;48.858;10.128;2022-12-18T08:33:33;-7.80;99.90
6377;DHT22;3221;48.858;10.128;2022-12-18T08:36:01;-7.80;99.90
6377;DHT22;3221;48.858;10.128;2022-12-18T08:38:28;-7.80;99.90
6377;DHT22;3221;48.858;10.128;2022-12-18T08:41:06;-7.80;99.90
6377;DHT22;3221;48.858;10.128;2022-12-18T08:43:33;-7.70;99.90
6377;DHT22;3221;48.858;10.128;2022-12-18T08:46:20;-7.70;99.90
6377;DHT22;3221;48.858;10.128;2022-12-18T08:48:47;-7.70;99.90
6377;DHT22;3221;48.858;10.128;2022-12-18T08:51:16;-7.60;99.90
6377;DHT22;3221;48.858;10.128;2022-12-18T08:53:44;-7.60;99.90
6377;DHT22;3221;48.858;10.128;2022-12-18T08:56:12;-7.60;99.90
6377;DHT22;3221;48.858;10.128;2022-12-18T08:58:39;-7.50;99.90
6377;DHT22;3221;48.858;10.128;2022-12-18T09:01:08;-7.40;99.90
6377;DHT22;3221;48.858;10.128;2022-12-18T09:03:35;-7.40;99.90
6377;DHT22;3221;48.858;10.128;2022-12-18T09:06:03;-7.40;99.90
6377;DHT22;3221;48.858;10.128;2022-12-18T09:08:30;-7.40;99.90
6377;DHT22;3221;48.858;10.128;2022-12-18T09:10:57;-7.40;99.90
6377;DHT22;3221;48.858;10.128;2022-12-18T09:13:24;-7.40;99.90
6377;DHT22;3221;48.858;10.128;2022-12-18T09:15:53;-7.40;99.90
6377;DHT22;3221;48.858;10.128;2022-12-18T09:18:22;-7.40;99.90
6377;DHT22;3221;48.858;10.128;2022-12-18T09:20:49;-7.30;99.90
6377;DHT22;3221;48.858;10.128;2022-12-18T09:23:18;-7.30;99.90
6377;DHT22;3221;48.858;10.128;2022-12-18T09:25:45;-7.30;99.90
6377;DHT22;3221;48.858;10.128;2022-12-18T09:28:16;-7.30;99.90
6377;DHT22;3221;48.858;10.128;2022-12-18T09:30:47;-7.30;99.90
6377;DHT22;3221;48.858;10.128;2022-12-18T09:33:16;-7.20;99.90
6377;DHT22;3221;48.858;10.128;2022-12-18T09:35:44;-7.20;99.90
6377;DHT22;3221;48.858;10.128;2022-12-18T09:38:14;-7.10;99.90
6377;DHT22;3221;48.858;10.128;2022-12-18T09:40:49;-7.00;99.90
6377;DHT22;3221;48.858;10.128;2022-12-18T09:43:28;-7.00;99.90
6377;DHT22;3221;48.858;10.128;2022-12-18T09:46:03;-7.00;99.90
6377;DHT22;3221;48.858;10.128;2022-12-18T09:48:35;-6.90;99.90
6377;DHT22;3221;48.858;10.128;2022-12-18T09:51:08;-6.80;99.90
6377;DHT22;3221;48.858;10.128;2022-12-18T09:53:39;-6.80;99.90
6377;DHT22;3221;48.858;10.128;2022-12-18T09:56:14;-6.70;99.90
6377;DHT22;3221;48.858;10.128;2022-12-18T09:58:50;-6.70;99.90
6377;DHT22;3221;48.858;10.128;2022-12-18T10:01:24;-6.70;99.90
6377;DHT22;3221;48.858;10.128;2022-12-18T10:03:56;-6.60;99.90
6377;DHT22;3221;48.858;10.128;2022-12-18T10:06:36;-6.60;99.90
6377;DHT22;3221;48.858;10.128;2022-12-18T10:09:08;-6.60;99.90
6377;DHT22;3221;48.858;10.128;2022-12-18T10:12:02;-6.50;99.90
6377;DHT22;3221;48.858;10.128;2022-12-18T10:20:01;-6.40;99.90
6377;DHT22;3221;48.858;10.128;2022-12-18T10:25:28;-6.30;99.90
6377;DHT22;3221;48.858;10.128;2022-12-18T10:27:56;-6.20;99.90
6377;DHT22;3221;48.858;10.128;2022-12-18T10:30:26;-6.10;99.90
6377;DHT22;3221;48.858;10.128;2022-12-18T10:32:53;-6.00;99.90
6377;DHT22;3221;48.858;10.128;2022-12-18T10:35:26;-5.80;99.90
6377;DHT22;3221;48.858;10.128;2022-12-18T10:38:26;-5.70;99.90
6377;DHT22;3221;48.858;10.128;2022-12-18T10:43:44;-5.60;99.90
6377;DHT22;3221;48.858;10.128;2022-12-18T10:51:26;-5.40;99.90
6377;DHT22;3221;48.858;10.128;2022-12-18T10:56:34;-5.20;99.90
6377;DHT22;3221;48.858;10.128;2022-12-18T10:59:07;-5.10;99.90
6377;DHT22;3221;48.858;10.128;2022-12-18T11:01:55;-5.10;99.90
6377;DHT22;3221;48.858;10.128;2022-12-18T11:04:26;-5.00;99.90
6377;DHT22;3221;48.858;10.128;2022-12-18T11:06:55;-5.10;99.90
6377;DHT22;3221;48.858;10.128;2022-12-18T11:09:27;-5.00;99.90
6377;DHT22;3221;48.858;10.128;2022-12-18T11:11:57;-4.80;99.90
6377;DHT22;3221;48.858;10.128;2022-12-18T11:14:47;-4.70;99.90
6377;DHT22;3221;48.858;10.128;2022-12-18T11:17:35;-4.60;99.90
6377;DHT22;3221;48.858;10.128;2022-12-18T11:20:05;-4.60;99.90
6377;DHT22;3221;48.858;10.128;2022-12-18T11:22:36;-4.60;99.90
6377;DHT22;3221;48.858;10.128;2022-12-18T11:25:16;-4.50;99.90
6377;DHT22;3221;48.858;10.128;2022-12-18T11:28:04;-4.50;99.90
6377;DHT22;3221;48.858;10.128;2022-12-18T11:30:36;-4.40;99.90
6377;DHT22;3221;48.858;10.128;2022-12-18T11:33:10;-4.40;99.90
6377;DHT22;3221;48.858;10.128;2022-12-18T11:36:00;-4.50;99.90
6377;DHT22;3221;48.858;10.128;2022-12-18T11:38:34;-4.60;99.90
6377;DHT22;3221;48.858;10.128;2022-12-18T11:44:22;-4.60;99.90
6377;DHT22;3221;48.858;10.128;2022-12-18T11:46:55;-4.70;99.90
6377;DHT22;3221;48.858;10.128;2022-12-18T11:49:28;-4.70;99.90
6377;DHT22;3221;48.858;10.128;2022-12-18T11:52:04;-4.80;99.90
6377;DHT22;3221;48.858;10.128;2022-12-18T11:54:34;-5.00;99.90
6377;DHT22;3221;48.858;10.128;2022-12-18T12:15:27;-4.70;99.90
6377;DHT22;3221;48.858;10.128;2022-12-18T12:18:13;-4.60;99.90
6377;DHT22;3221;48.858;10.128;2022-12-18T12:39:23;-4.80;99.90
6377;DHT22;3221;48.858;10.128;2022-12-18T12:41:55;-4.80;99.90
6377;DHT22;3221;48.858;10.128;2022-12-18T12:44:45;-4.70;99.90
6377;DHT22;3221;48.858;10.128;2022-12-18T12:47:25;-4.60;99.90
6377;DHT22;3221;48.858;10.128;2022-12-18T12:49:54;-4.50;99.90
6377;DHT22;3221;48.858;10.128;2022-12-18T12:52:32;-4.40;99.90
6377;DHT22;3221;48.858;10.128;2022-12-18T12:55:04;-4.50;99.90
6377;DHT22;3221;48.858;10.128;2022-12-18T12:57:47;-4.50;99.90
6377;DHT22;3221;48.858;10.128;2022-12-18T13:00:17;-4.60;99.90
6377;DHT22;3221;48.858;10.128;2022-12-18T13:02:57;-4.60;99.90
6377;DHT22;3221;48.858;10.128;2022-12-18T13:05:31;-4.70;99.90
6377;DHT22;3221;48.858;10.128;2022-12-18T13:08:07;-4.90;99.90
6377;DHT22;3221;48.858;10.128;2022-12-18T13:10:35;-4.80;99.90
6377;DHT22;3221;48.858;10.128;2022-12-18T13:13:11;-4.80;99.90
6377;DHT22;3221;48.858;10.128;2022-12-18T13:18:17;-4.80;99.90
6377;DHT22;3221;48.858;10.128;2022-12-18T13:21:08;-4.80;99.90
6377;DHT22;3221;48.858;10.128;2022-12-18T13:23:39;-4.90;99.90
6377;DHT22;3221;48.858;10.128;2022-12-18T13:32:00;-5.00;99.90
6377;DHT22;3221;48.858;10.128;2022-12-18T13:36:56;-5.00;99.90
6377;DHT22;3221;48.858;10.128;2022-12-18T13:39:34;-5.10;99.90
6377;DHT22;3221;48.858;10.128;2022-12-18T13:44:33;-5.10;99.90
6377;DHT22;3221;48.858;10.128;2022-12-18T13:49:52;-5.20;99.90
6377;DHT22;3221;48.858;10.128;2022-12-18T13:52:22;-5.20;99.90
6377;DHT22;3221;48.858;10.128;2022-12-18T13:54:55;-5.20;99.90
6377;DHT22;3221;48.858;10.128;2022-12-18T14:02:46;-5.30;99.90
6377;DHT22;3221;48.858;10.128;2022-12-18T14:05:28;-5.30;99.90
6377;DHT22;3221;48.858;10.128;2022-12-18T14:08:10;-5.30;99.90
6377;DHT22;3221;48.858;10.128;2022-12-18T14:10:42;-5.30;99.90
6377;DHT22;3221;48.858;10.128;2022-12-18T14:13:26;-5.30;99.90
6377;DHT22;3221;48.858;10.128;2022-12-18T14:15:56;-5.40;99.90
6377;DHT22;3221;48.858;10.128;2022-12-18T14:18:30;-5.40;99.90
6377;DHT22;3221;48.858;10.128;2022-12-18T14:21:00;-5.30;99.90
6377;DHT22;3221;48.858;10.128;2022-12-18T14:23:32;-5.30;99.90
6377;DHT22;3221;48.858;10.128;2022-12-18T14:26:01;-5.30;99.90
6377;DHT22;3221;48.858;10.128;2022-12-18T14:28:32;-5.30;99.90
6377;DHT22;3221;48.858;10.128;2022-12-18T14:30:59;-5.30;99.90
6377;DHT22;3221;48.858;10.128;2022-12-18T14:33:27;-5.30;99.90
6377;DHT22;3221;48.858;10.128;2022-12-18T14:38:40;-5.40;99.90
6377;DHT22;3221;48.858;10.128;2022-12-18T14:41:15;-5.40;99.90
6377;DHT22;3221;48.858;10.128;2022-12-18T14:43:45;-5.40;99.90
6377;DHT22;3221;48.858;10.128;2022-12-18T14:48:56;-5.40;99.90
6377;DHT22;3221;48.858;10.128;2022-12-18T14:51:29;-5.40;99.90
6377;DHT22;3221;48.858;10.128;2022-12-18T14:53:58;-5.40;99.90
6377;DHT22;3221;48.858;10.128;2022-12-18T14:56:32;-5.40;99.90
6377;DHT22;3221;48.858;10.128;2022-12-18T14:59:04;-5.60;99.90
6377;DHT22;3221;48.858;10.128;2022-12-18T15:01:36;-5.60;99.90
6377;DHT22;3221;48.858;10.128;2022-12-18T15:04:19;-5.50;99.90
6377;DHT22;3221;48.858;10.128;2022-12-18T15:07:15;-5.50;99.90
6377;DHT22;3221;48.858;10.128;2022-12-18T15:12:42;-5.60;99.90
6377;DHT22;3221;48.858;10.128;2022-12-18T15:20:47;-5.60;99.90
6377;DHT22;3221;48.858;10.128;2022-12-18T15:23:30;-5.60;99.90
6377;DHT22;3221;48.858;10.128;2022-12-18T15:26:09;-5.60;99.90
6377;DHT22;3221;48.858;10.128;2022-12-18T15:28:48;-5.60;99.90
6377;DHT22;3221;48.858;10.128;2022-12-18T15:36:20;-5.60;99.90
6377;DHT22;3221;48.858;10.128;2022-12-18T15:38:54;-5.70;99.90
6377;DHT22;3221;48.858;10.128;2022-12-18T15:41:32;-5.70;99.90
6377;DHT22;3221;48.858;10.128;2022-12-18T15:44:22;-5.70;99.90
6377;DHT22;3221;48.858;10.128;2022-12-18T15:46:49;-5.80;99.90
6377;DHT22;3221;48.858;10.128;2022-12-18T15:49:16;-5.80;99.90
6377;DHT22;3221;48.858;10.128;2022-12-18T15:51:42;-5.90;99.90
6377;DHT22;3221;48.858;10.128;2022-12-18T15:54:13;-5.90;99.90
6377;DHT22;3221;48.858;10.128;2022-12-18T15:56:42;-5.90;99.90
6377;DHT22;3221;48.858;10.128;2022-12-18T15:59:28;-5.90;99.90
6377;DHT22;3221;48.858;10.128;2022-12-18T16:01:56;-5.90;99.90
6377;DHT22;3221;48.858;10.128;2022-12-18T16:04:23;-5.90;99.90
6377;DHT22;3221;48.858;10.128;2022-12-18T16:06:51;-5.90;99.90
6377;DHT22;3221;48.858;10.128;2022-12-18T16:09:40;-5.90;99.90
6377;DHT22;3221;48.858;10.128;2022-12-18T16:12:26;-5.90;99.90
6377;DHT22;3221;48.858;10.128;2022-12-18T16:14:53;-6.00;99.90
6377;DHT22;3221;48.858;10.128;2022-12-18T16:17:20;-5.90;99.90
6377;DHT22;3221;48.858;10.128;2022-12-18T16:19:47;-5.90;99.90
6377;DHT22;3221;48.858;10.128;2022-12-18T16:22:27;-6.00;99.90
6377;DHT22;3221;48.858;10.128;2022-12-18T16:24:56;-6.00;99.90
6377;DHT22;3221;48.858;10.128;2022-12-18T16:27:23;-6.00;99.90
6377;DHT22;3221;48.858;10.128;2022-12-18T16:29:50;-6.00;99.90
6377;DHT22;3221;48.858;10.128;2022-12-18T16:32:19;-6.00;99.90
6377;DHT22;3221;48.858;10.128;2022-12-18T16:34:47;-6.00;99.90
6377;DHT22;3221;48.858;10.128;2022-12-18T16:37:15;-6.00;99.90
6377;DHT22;3221;48.858;10.128;2022-12-18T16:39:42;-6.00;99.90
6377;DHT22;3221;48.858;10.128;2022-12-18T16:42:15;-6.00;99.90
6377;DHT22;3221;48.858;10.128;2022-12-18T16:44:46;-6.10;99.90
6377;DHT22;3221;48.858;10.128;2022-12-18T16:47:16;-6.00;99.90
6377;DHT22;3221;48.858;10.128;2022-12-18T16:49:43;-6.00;99.90
6377;DHT22;3221;48.858;10.128;2022-12-18T16:52:18;-6.00;99.90
6377;DHT22;3221;48.858;10.128;2022-12-18T16:54:45;-6.00;99.90
6377;DHT22;3221;48.858;10.128;2022-12-18T16:57:14;-6.00;99.90
6377;DHT22;3221;48.858;10.128;2022-12-18T16:59:41;-6.00;99.90
6377;DHT22;3221;48.858;10.128;2022-12-18T17:02:27;-6.00;99.90
6377;DHT22;3221;48.858;10.128;2022-12-18T17:04:55;-6.00;99.90
6377;DHT22;3221;48.858;10.128;2022-12-18T17:07:23;-6.00;99.90
6377;DHT22;3221;48.858;10.128;2022-12-18T17:09:51;-6.00;99.90
6377;DHT22;3221;48.858;10.128;2022-12-18T17:12:20;-6.00;99.90
6377;DHT22;3221;48.858;10.128;2022-12-18T17:14:47;-6.10;99.90
6377;DHT22;3221;48.858;10.128;2022-12-18T17:17:14;-6.10;99.90
6377;DHT22;3221;48.858;10.128;2022-12-18T17:19:50;-6.10;99.90
6377;DHT22;3221;48.858;10.128;2022-12-18T17:22:18;-6.10;99.90
6377;DHT22;3221;48.858;10.128;2022-12-18T17:24:46;-6.10;99.90
6377;DHT22;3221;48.858;10.128;2022-12-18T17:27:13;-6.10;99.90
6377;DHT22;3221;48.858;10.128;2022-12-18T17:29:39;-6.10;99.90
6377;DHT22;3221;48.858;10.128;2022-12-18T17:32:14;-6.10;99.90
6377;DHT22;3221;48.858;10.128;2022-12-18T17:34:41;-6.10;99.90
6377;DHT22;3221;48.858;10.128;2022-12-18T17:37:08;-6.10;99.90
6377;DHT22;3221;48.858;10.128;2022-12-18T17:39:35;-6.10;99.90
6377;DHT22;3221;48.858;10.128;2022-12-18T17:42:02;-6.00;99.90
6377;DHT22;3221;48.858;10.128;2022-12-18T17:44:30;-6.00;99.90
6377;DHT22;3221;48.858;10.128;2022-12-18T17:46:57;-6.00;99.90
6377;DHT22;3221;48.858;10.128;2022-12-18T17:49:24;-6.00;99.90
6377;DHT22;3221;48.858;10.128;2022-12-18T17:51:51;-6.00;99.90
6377;DHT22;3221;48.858;10.128;2022-12-18T17:54:18;-6.00;99.90
6377;DHT22;3221;48.858;10.128;2022-12-18T17:56:45;-5.90;99.90
6377;DHT22;3221;48.858;10.128;2022-12-18T17:59:12;-5.90;99.90
6377;DHT22;3221;48.858;10.128;2022-12-18T18:01:39;-5.90;99.90
6377;DHT22;3221;48.858;10.128;2022-12-18T18:04:11;-5.90;99.90
6377;DHT22;3221;48.858;10.128;2022-12-18T18:06:39;-5.90;99.90
6377;DHT22;3221;48.858;10.128;2022-12-18T18:09:06;-5.90;99.90
6377;DHT22;3221;48.858;10.128;2022-12-18T18:11:43;-5.90;99.90
6377;DHT22;3221;48.858;10.128;2022-12-18T18:14:30;-5.90;99.90
6377;DHT22;3221;48.858;10.128;2022-12-18T18:16:56;-5.90;99.90
6377;DHT22;3221;48.858;10.128;2022-12-18T18:19:31;-5.80;99.90